sensor_id;sensor_type;location;lat;lon;timestamp;P1;durP1;ratioP1;P2;durP2;ratioP2
10293;SDS011;5192;50.328;7.610;2023-06-05T00:00:57;3.23;;;2.50;;
10293;SDS011;5192;50.328;7.610;2023-06-05T00:03:25;3.07;;;2.40;;
10293;SDS011;5192;50.328;7.610;2023-06-05T00:05:52;3.43;;;2.70;;
10293;SDS011;5192;50.328;7.610;2023-06-05T00:08:22;3.00;;;2.53;;
10293;SDS011;5192;50.328;7.610;2023-06-05T00:10:50;2.93;;;2.40;;
10293;SDS011;5192;50.328;7.610;2023-06-05T00:13:17;2.87;;;2.40;;
10293;SDS011;5192;50.328;7.610;2023-06-05T00:15:45;2.50;;;2.30;;
10293;SDS011;5192;50.328;7.610;2023-06-05T00:18:13;6.23;;;4.73;;
10293;SDS011;5192;50.328;7.610;2023-06-05T00:20:41;5.27;;;3.00;;
10293;SDS011;5192;50.328;7.610;2023-06-05T00:23:08;3.43;;;3.10;;
10293;SDS011;5192;50.328;7.610;2023-06-05T00:25:35;2.63;;;2.43;;
10293;SDS011;5192;50.328;7.610;2023-06-05T00:28:02;3.47;;;2.33;;
10293;SDS011;5192;50.328;7.610;2023-06-05T00:30:29;2.40;;;2.20;;
10293;SDS011;5192;50.328;7.610;2023-06-05T00:32:56;2.97;;;2.07;;
10293;SDS011;5192;50.328;7.610;2023-06-05T00:35:25;3.37;;;2.23;;
10293;SDS011;5192;50.328;7.610;2023-06-05T00:37:54;2.70;;;2.00;;
10293;SDS011;5192;50.328;7.610;2023-06-05T00:40:20;3.97;;;2.07;;
10293;SDS011;5192;50.328;7.610;2023-06-05T00:42:47;3.70;;;2.50;;
10293;SDS011;5192;50.328;7.610;2023-06-05T00:45:14;3.37;;;2.50;;
10293;SDS011;5192;50.328;7.610;2023-06-05T00:47:41;2.87;;;2.57;;
10293;SDS011;5192;50.328;7.610;2023-06-05T00:50:10;2.40;;;2.20;;
10293;SDS011;5192;50.328;7.610;2023-06-05T00:52:37;2.30;;;2.20;;
10293;SDS011;5192;50.328;7.610;2023-06-05T00:55:15;6.27;;;2.60;;
10293;SDS011;5192;50.328;7.610;2023-06-05T00:57:44;3.73;;;2.33;;
10293;SDS011;5192;50.328;7.610;2023-06-05T01:00:13;2.90;;;2.60;;
10293;SDS011;5192;50.328;7.610;2023-06-05T01:02:41;2.97;;;2.40;;
10293;SDS011;5192;50.328;7.610;2023-06-05T01:05:09;3.17;;;2.40;;
10293;SDS011;5192;50.328;7.610;2023-06-05T01:07:36;3.07;;;2.47;;
10293;SDS011;5192;50.328;7.610;2023-06-05T01:10:07;4.00;;;2.60;;
10293;SDS011;5192;50.328;7.610;2023-06-05T01:15:38;4.30;;;2.40;;
10293;SDS011;5192;50.328;7.610;2023-06-05T01:18:04;2.63;;;2.10;;
10293;SDS011;5192;50.328;7.610;2023-06-05T01:20:34;3.20;;;2.17;;
10293;SDS011;5192;50.328;7.610;2023-06-05T01:23:07;2.23;;;2.00;;
10293;SDS011;5192;50.328;7.610;2023-06-05T01:25:37;3.30;;;2.50;;
10293;SDS011;5192;50.328;7.610;2023-06-05T01:28:17;2.73;;;2.47;;
10293;SDS011;5192;50.328;7.610;2023-06-05T01:34:19;3.53;;;2.33;;
10293;SDS011;5192;50.328;7.610;2023-06-05T01:36:45;2.70;;;2.10;;
10293;SDS011;5192;50.328;7.610;2023-06-05T01:39:12;2.70;;;2.13;;
10293;SDS011;5192;50.328;7.610;2023-06-05T01:41:40;2.53;;;2.33;;
10293;SDS011;5192;50.328;7.610;2023-06-05T01:44:07;3.33;;;2.00;;
10293;SDS011;5192;50.328;7.610;2023-06-05T01:46:36;3.17;;;2.23;;
10293;SDS011;5192;50.328;7.610;2023-06-05T01:49:04;4.17;;;1.80;;
10293;SDS011;5192;50.328;7.610;2023-06-05T01:51:36;2.37;;;2.17;;
10293;SDS011;5192;50.328;7.610;2023-06-05T01:54:03;2.77;;;2.17;;
10293;SDS011;5192;50.328;7.610;2023-06-05T01:56:32;3.70;;;1.90;;
10293;SDS011;5192;50.328;7.610;2023-06-05T01:59:02;3.20;;;2.20;;
10293;SDS011;5192;50.328;7.610;2023-06-05T02:01:33;2.27;;;2.00;;
10293;SDS011;5192;50.328;7.610;2023-06-05T02:04:01;3.37;;;2.00;;
10293;SDS011;5192;50.328;7.610;2023-06-05T02:06:33;3.27;;;2.20;;
10293;SDS011;5192;50.328;7.610;2023-06-05T02:09:08;3.70;;;2.40;;
10293;SDS011;5192;50.328;7.610;2023-06-05T02:11:42;3.43;;;2.30;;
10293;SDS011;5192;50.328;7.610;2023-06-05T02:14:12;2.87;;;2.47;;
10293;SDS011;5192;50.328;7.610;2023-06-05T02:16:40;2.87;;;2.40;;
10293;SDS011;5192;50.328;7.610;2023-06-05T02:19:07;3.83;;;2.30;;
10293;SDS011;5192;50.328;7.610;2023-06-05T02:21:35;2.97;;;2.50;;
10293;SDS011;5192;50.328;7.610;2023-06-05T02:24:02;3.43;;;2.40;;
10293;SDS011;5192;50.328;7.610;2023-06-05T02:26:34;2.87;;;2.33;;
10293;SDS011;5192;50.328;7.610;2023-06-05T02:29:02;2.87;;;2.03;;
10293;SDS011;5192;50.328;7.610;2023-06-05T02:31:29;5.33;;;2.37;;
10293;SDS011;5192;50.328;7.610;2023-06-05T02:33:55;2.27;;;2.00;;
10293;SDS011;5192;50.328;7.610;2023-06-05T02:36:23;3.77;;;1.93;;
10293;SDS011;5192;50.328;7.610;2023-06-05T02:38:51;3.67;;;2.20;;
10293;SDS011;5192;50.328;7.610;2023-06-05T02:41:19;3.20;;;2.00;;
10293;SDS011;5192;50.328;7.610;2023-06-05T02:43:46;2.10;;;1.90;;
10293;SDS011;5192;50.328;7.610;2023-06-05T02:46:15;2.23;;;2.03;;
10293;SDS011;5192;50.328;7.610;2023-06-05T02:48:43;3.13;;;2.00;;
10293;SDS011;5192;50.328;7.610;2023-06-05T02:51:09;2.40;;;2.20;;
10293;SDS011;5192;50.328;7.610;2023-06-05T02:53:37;2.57;;;2.07;;
10293;SDS011;5192;50.328;7.610;2023-06-05T02:56:04;2.40;;;2.20;;
10293;SDS011;5192;50.328;7.610;2023-06-05T02:58:32;2.40;;;1.93;;
10293;SDS011;5192;50.328;7.610;2023-06-05T03:00:59;2.77;;;2.00;;
10293;SDS011;5192;50.328;7.610;2023-06-05T03:03:31;3.07;;;1.90;;
10293;SDS011;5192;50.328;7.610;2023-06-05T03:06:01;3.20;;;1.90;;
10293;SDS011;5192;50.328;7.610;2023-06-05T03:08:44;3.23;;;2.00;;
10293;SDS011;5192;50.328;7.610;2023-06-05T03:11:11;2.37;;;2.00;;
10293;SDS011;5192;50.328;7.610;2023-06-05T03:13:38;2.53;;;2.00;;
10293;SDS011;5192;50.328;7.610;2023-06-05T03:16:05;3.13;;;2.10;;
10293;SDS011;5192;50.328;7.610;2023-06-05T03:18:34;2.47;;;1.93;;
10293;SDS011;5192;50.328;7.610;2023-06-05T03:21:02;2.23;;;1.90;;
10293;SDS011;5192;50.328;7.610;2023-06-05T03:23:29;3.47;;;2.40;;
10293;SDS011;5192;50.328;7.610;2023-06-05T03:25:56;4.30;;;2.73;;
10293;SDS011;5192;50.328;7.610;2023-06-05T03:28:22;2.53;;;2.33;;
10293;SDS011;5192;50.328;7.610;2023-06-05T03:30:50;3.43;;;2.40;;
10293;SDS011;5192;50.328;7.610;2023-06-05T03:33:16;2.57;;;2.30;;
10293;SDS011;5192;50.328;7.610;2023-06-05T03:35:44;3.47;;;2.63;;
10293;SDS011;5192;50.328;7.610;2023-06-05T03:38:13;3.87;;;2.60;;
10293;SDS011;5192;50.328;7.610;2023-06-05T03:40:41;4.27;;;2.53;;
10293;SDS011;5192;50.328;7.610;2023-06-05T03:43:07;3.00;;;2.60;;
10293;SDS011;5192;50.328;7.610;2023-06-05T03:45:35;3.13;;;2.80;;
10293;SDS011;5192;50.328;7.610;2023-06-05T03:48:03;4.17;;;2.97;;
10293;SDS011;5192;50.328;7.610;2023-06-05T03:50:34;3.03;;;2.73;;
10293;SDS011;5192;50.328;7.610;2023-06-05T03:53:05;2.93;;;2.63;;
10293;SDS011;5192;50.328;7.610;2023-06-05T03:55:34;3.80;;;3.00;;
10293;SDS011;5192;50.328;7.610;2023-06-05T03:58:12;3.40;;;3.10;;
10293;SDS011;5192;50.328;7.610;2023-06-05T04:03:25;3.80;;;2.80;;
10293;SDS011;5192;50.328;7.610;2023-06-05T04:05:55;4.50;;;3.40;;
10293;SDS011;5192;50.328;7.610;2023-06-05T04:08:22;3.23;;;2.90;;
10293;SDS011;5192;50.328;7.610;2023-06-05T04:10:49;2.87;;;2.67;;
10293;SDS011;5192;50.328;7.610;2023-06-05T04:13:20;5.27;;;2.80;;
10293;SDS011;5192;50.328;7.610;2023-06-05T04:15:47;6.00;;;3.10;;
10293;SDS011;5192;50.328;7.610;2023-06-05T04:18:16;3.07;;;2.70;;
10293;SDS011;5192;50.328;7.610;2023-06-05T04:20:42;3.20;;;2.90;;
10293;SDS011;5192;50.328;7.610;2023-06-05T04:23:09;5.67;;;3.20;;
10293;SDS011;5192;50.328;7.610;2023-06-05T04:25:37;4.00;;;2.77;;
10293;SDS011;5192;50.328;7.610;2023-06-05T04:28:06;4.10;;;2.80;;
10293;SDS011;5192;50.328;7.610;2023-06-05T04:30:34;3.47;;;2.87;;
10293;SDS011;5192;50.328;7.610;2023-06-05T04:33:01;5.13;;;3.10;;
10293;SDS011;5192;50.328;7.610;2023-06-05T04:35:31;3.40;;;3.10;;
10293;SDS011;5192;50.328;7.610;2023-06-05T04:38:00;3.50;;;3.20;;
10293;SDS011;5192;50.328;7.610;2023-06-05T04:40:27;3.97;;;3.40;;
10293;SDS011;5192;50.328;7.610;2023-06-05T04:42:56;3.87;;;3.03;;
10293;SDS011;5192;50.328;7.610;2023-06-05T04:45:25;4.27;;;3.10;;
10293;SDS011;5192;50.328;7.610;2023-06-05T04:47:52;4.60;;;3.30;;
10293;SDS011;5192;50.328;7.610;2023-06-05T04:50:22;4.70;;;3.37;;
10293;SDS011;5192;50.328;7.610;2023-06-05T04:52:50;5.20;;;3.10;;
10293;SDS011;5192;50.328;7.610;2023-06-05T04:55:22;3.30;;;3.00;;
10293;SDS011;5192;50.328;7.610;2023-06-05T04:57:49;3.77;;;3.20;;
10293;SDS011;5192;50.328;7.610;2023-06-05T05:00:17;4.93;;;3.10;;
10293;SDS011;5192;50.328;7.610;2023-06-05T05:02:45;3.80;;;3.50;;
10293;SDS011;5192;50.328;7.610;2023-06-05T05:05:11;3.40;;;3.10;;
10293;SDS011;5192;50.328;7.610;2023-06-05T05:07:42;3.83;;;3.37;;
10293;SDS011;5192;50.328;7.610;2023-06-05T05:10:12;4.67;;;3.47;;
10293;SDS011;5192;50.328;7.610;2023-06-05T05:12:41;5.17;;;3.57;;
10293;SDS011;5192;50.328;7.610;2023-06-05T05:15:09;4.23;;;3.77;;
10293;SDS011;5192;50.328;7.610;2023-06-05T05:17:38;4.27;;;3.50;;
10293;SDS011;5192;50.328;7.610;2023-06-05T05:20:07;4.10;;;3.70;;
10293;SDS011;5192;50.328;7.610;2023-06-05T05:22:33;3.90;;;3.50;;
10293;SDS011;5192;50.328;7.610;2023-06-05T05:25:02;6.37;;;4.13;;
10293;SDS011;5192;50.328;7.610;2023-06-05T05:27:29;5.20;;;3.73;;
10293;SDS011;5192;50.328;7.610;2023-06-05T05:29:56;7.33;;;4.03;;
10293;SDS011;5192;50.328;7.610;2023-06-05T05:32:22;5.13;;;4.27;;
10293;SDS011;5192;50.328;7.610;2023-06-05T05:34:50;4.93;;;3.70;;
10293;SDS011;5192;50.328;7.610;2023-06-05T05:37:16;9.23;;;4.50;;
10293;SDS011;5192;50.328;7.610;2023-06-05T05:39:45;4.03;;;3.43;;
10293;SDS011;5192;50.328;7.610;2023-06-05T05:42:11;4.20;;;3.70;;
10293;SDS011;5192;50.328;7.610;2023-06-05T05:44:40;5.43;;;3.73;;
10293;SDS011;5192;50.328;7.610;2023-06-05T05:47:08;4.97;;;3.87;;
10293;SDS011;5192;50.328;7.610;2023-06-05T05:49:36;4.10;;;3.70;;
10293;SDS011;5192;50.328;7.610;2023-06-05T05:52:03;4.87;;;3.73;;
10293;SDS011;5192;50.328;7.610;2023-06-05T05:54:30;4.17;;;3.50;;
10293;SDS011;5192;50.328;7.610;2023-06-05T05:56:56;5.13;;;3.50;;
10293;SDS011;5192;50.328;7.610;2023-06-05T05:59:24;4.63;;;3.53;;
10293;SDS011;5192;50.328;7.610;2023-06-05T06:01:51;6.37;;;3.63;;
10293;SDS011;5192;50.328;7.610;2023-06-05T06:04:18;3.90;;;3.60;;
10293;SDS011;5192;50.328;7.610;2023-06-05T06:06:46;5.30;;;3.73;;
10293;SDS011;5192;50.328;7.610;2023-06-05T06:09:13;4.80;;;3.90;;
10293;SDS011;5192;50.328;7.610;2023-06-05T06:11:41;5.17;;;3.73;;
10293;SDS011;5192;50.328;7.610;2023-06-05T06:14:07;5.23;;;3.80;;
10293;SDS011;5192;50.328;7.610;2023-06-05T06:16:37;6.03;;;3.67;;
10293;SDS011;5192;50.328;7.610;2023-06-05T06:19:05;4.63;;;3.80;;
10293;SDS011;5192;50.328;7.610;2023-06-05T06:21:32;5.73;;;3.90;;
10293;SDS011;5192;50.328;7.610;2023-06-05T06:23:58;4.60;;;3.30;;
10293;SDS011;5192;50.328;7.610;2023-06-05T06:26:25;5.27;;;3.60;;
10293;SDS011;5192;50.328;7.610;2023-06-05T06:28:53;4.93;;;3.57;;
10293;SDS011;5192;50.328;7.610;2023-06-05T06:31:24;4.67;;;2.90;;
10293;SDS011;5192;50.328;7.610;2023-06-05T06:33:53;4.03;;;3.17;;
10293;SDS011;5192;50.328;7.610;2023-06-05T06:36:22;4.90;;;2.87;;
10293;SDS011;5192;50.328;7.610;2023-06-05T06:38:49;4.83;;;3.23;;
10293;SDS011;5192;50.328;7.610;2023-06-05T06:41:17;3.30;;;3.00;;
10293;SDS011;5192;50.328;7.610;2023-06-05T06:43:45;3.37;;;2.70;;
10293;SDS011;5192;50.328;7.610;2023-06-05T06:46:11;3.80;;;3.10;;
10293;SDS011;5192;50.328;7.610;2023-06-05T06:48:38;4.93;;;3.20;;
10293;SDS011;5192;50.328;7.610;2023-06-05T06:51:07;3.90;;;3.27;;
10293;SDS011;5192;50.328;7.610;2023-06-05T06:53:32;3.40;;;3.10;;
10293;SDS011;5192;50.328;7.610;2023-06-05T06:55:59;5.80;;;3.73;;
10293;SDS011;5192;50.328;7.610;2023-06-05T06:58:26;4.00;;;3.47;;
10293;SDS011;5192;50.328;7.610;2023-06-05T07:00:52;4.63;;;3.70;;
10293;SDS011;5192;50.328;7.610;2023-06-05T07:03:21;4.00;;;3.60;;
10293;SDS011;5192;50.328;7.610;2023-06-05T07:05:50;5.70;;;3.70;;
10293;SDS011;5192;50.328;7.610;2023-06-05T07:08:18;5.20;;;3.33;;
10293;SDS011;5192;50.328;7.610;2023-06-05T07:10:44;5.43;;;3.63;;
10293;SDS011;5192;50.328;7.610;2023-06-05T07:13:11;5.37;;;3.70;;
10293;SDS011;5192;50.328;7.610;2023-06-05T07:15:37;6.20;;;3.93;;
10293;SDS011;5192;50.328;7.610;2023-06-05T07:18:04;6.97;;;4.73;;
10293;SDS011;5192;50.328;7.610;2023-06-05T07:20:31;4.87;;;2.90;;
10293;SDS011;5192;50.328;7.610;2023-06-05T07:22:58;5.23;;;3.20;;
10293;SDS011;5192;50.328;7.610;2023-06-05T07:25:26;6.10;;;3.20;;
10293;SDS011;5192;50.328;7.610;2023-06-05T07:27:53;5.67;;;4.03;;
10293;SDS011;5192;50.328;7.610;2023-06-05T07:30:21;3.93;;;3.50;;
10293;SDS011;5192;50.328;7.610;2023-06-05T07:32:48;3.17;;;2.83;;
10293;SDS011;5192;50.328;7.610;2023-06-05T07:35:15;4.93;;;3.43;;
10293;SDS011;5192;50.328;7.610;2023-06-05T07:37:43;6.60;;;3.10;;
10293;SDS011;5192;50.328;7.610;2023-06-05T07:40:10;5.40;;;3.57;;
10293;SDS011;5192;50.328;7.610;2023-06-05T07:42:39;4.90;;;3.20;;
10293;SDS011;5192;50.328;7.610;2023-06-05T07:45:07;6.20;;;3.47;;
10293;SDS011;5192;50.328;7.610;2023-06-05T07:47:35;4.53;;;3.57;;
10293;SDS011;5192;50.328;7.610;2023-06-05T07:50:03;6.83;;;3.70;;
10293;SDS011;5192;50.328;7.610;2023-06-05T07:52:33;6.60;;;3.57;;
10293;SDS011;5192;50.328;7.610;2023-06-05T07:55:00;5.90;;;3.47;;
10293;SDS011;5192;50.328;7.610;2023-06-05T07:57:28;9.07;;;3.53;;
10293;SDS011;5192;50.328;7.610;2023-06-05T07:59:55;6.33;;;3.43;;
10293;SDS011;5192;50.328;7.610;2023-06-05T08:02:22;6.20;;;3.10;;
10293;SDS011;5192;50.328;7.610;2023-06-05T08:04:50;4.40;;;3.00;;
10293;SDS011;5192;50.328;7.610;2023-06-05T08:07:17;4.87;;;2.80;;
10293;SDS011;5192;50.328;7.610;2023-06-05T08:09:46;7.40;;;3.23;;
10293;SDS011;5192;50.328;7.610;2023-06-05T08:12:12;3.80;;;2.57;;
10293;SDS011;5192;50.328;7.610;2023-06-05T08:14:40;4.07;;;2.78;;
10293;SDS011;5192;50.328;7.610;2023-06-05T08:17:05;7.83;;;3.13;;
10293;SDS011;5192;50.328;7.610;2023-06-05T08:19:33;3.57;;;2.87;;
10293;SDS011;5192;50.328;7.610;2023-06-05T08:22:01;3.73;;;3.07;;
10293;SDS011;5192;50.328;7.610;2023-06-05T08:24:30;5.93;;;3.33;;
10293;SDS011;5192;50.328;7.610;2023-06-05T08:26:58;3.60;;;2.60;;
10293;SDS011;5192;50.328;7.610;2023-06-05T08:29:27;5.73;;;3.10;;
10293;SDS011;5192;50.328;7.610;2023-06-05T08:31:55;6.00;;;3.35;;
10293;SDS011;5192;50.328;7.610;2023-06-05T08:34:22;5.07;;;2.83;;
10293;SDS011;5192;50.328;7.610;2023-06-05T08:36:51;8.85;;;3.08;;
10293;SDS011;5192;50.328;7.610;2023-06-05T08:39:18;4.30;;;2.80;;
10293;SDS011;5192;50.328;7.610;2023-06-05T08:41:45;4.87;;;2.50;;
10293;SDS011;5192;50.328;7.610;2023-06-05T08:44:29;5.50;;;2.65;;
10293;SDS011;5192;50.328;7.610;2023-06-05T08:47:00;5.38;;;2.88;;
10293;SDS011;5192;50.328;7.610;2023-06-05T08:49:28;5.50;;;3.03;;
10293;SDS011;5192;50.328;7.610;2023-06-05T08:52:10;3.00;;;2.67;;
10293;SDS011;5192;50.328;7.610;2023-06-05T08:54:39;6.82;;;2.60;;
10293;SDS011;5192;50.328;7.610;2023-06-05T08:57:06;5.60;;;2.70;;
10293;SDS011;5192;50.328;7.610;2023-06-05T08:59:54;4.10;;;2.30;;
10293;SDS011;5192;50.328;7.610;2023-06-05T09:02:24;4.68;;;2.65;;
10293;SDS011;5192;50.328;7.610;2023-06-05T09:04:51;3.42;;;2.58;;
10293;SDS011;5192;50.328;7.610;2023-06-05T09:07:18;4.22;;;2.72;;
10293;SDS011;5192;50.328;7.610;2023-06-05T09:09:46;4.63;;;2.55;;
10293;SDS011;5192;50.328;7.610;2023-06-05T09:12:12;3.92;;;3.10;;
10293;SDS011;5192;50.328;7.610;2023-06-05T09:14:58;3.22;;;2.83;;
10293;SDS011;5192;50.328;7.610;2023-06-05T09:17:34;4.93;;;2.70;;
10293;SDS011;5192;50.328;7.610;2023-06-05T09:20:03;3.65;;;2.60;;
10293;SDS011;5192;50.328;7.610;2023-06-05T09:22:32;2.85;;;2.55;;
10293;SDS011;5192;50.328;7.610;2023-06-05T09:25:00;6.65;;;2.63;;
10293;SDS011;5192;50.328;7.610;2023-06-05T09:28:08;7.75;;;3.08;;
10293;SDS011;5192;50.328;7.610;2023-06-05T09:30:39;4.85;;;2.63;;
10293;SDS011;5192;50.328;7.610;2023-06-05T09:33:28;9.20;;;2.95;;
10293;SDS011;5192;50.328;7.610;2023-06-05T09:38:53;3.97;;;2.33;;
10293;SDS011;5192;50.328;7.610;2023-06-05T09:41:20;3.80;;;2.63;;
10293;SDS011;5192;50.328;7.610;2023-06-05T09:43:47;5.15;;;2.67;;
10293;SDS011;5192;50.328;7.610;2023-06-05T09:46:16;7.40;;;3.03;;
10293;SDS011;5192;50.328;7.610;2023-06-05T09:48:42;5.97;;;2.92;;
10293;SDS011;5192;50.328;7.610;2023-06-05T09:51:16;5.07;;;2.25;;
10293;SDS011;5192;50.328;7.610;2023-06-05T09:53:49;5.40;;;2.75;;
10293;SDS011;5192;50.328;7.610;2023-06-05T09:56:17;4.05;;;2.88;;
10293;SDS011;5192;50.328;7.610;2023-06-05T09:58:47;8.23;;;2.67;;
10293;SDS011;5192;50.328;7.610;2023-06-05T10:01:17;4.30;;;2.38;;
10293;SDS011;5192;50.328;7.610;2023-06-05T10:03:57;3.85;;;2.35;;
10293;SDS011;5192;50.328;7.610;2023-06-05T10:06:37;4.18;;;2.10;;
10293;SDS011;5192;50.328;7.610;2023-06-05T10:09:09;3.15;;;2.38;;
10293;SDS011;5192;50.328;7.610;2023-06-05T10:11:38;4.10;;;2.50;;
10293;SDS011;5192;50.328;7.610;2023-06-05T10:14:07;3.38;;;2.60;;
10293;SDS011;5192;50.328;7.610;2023-06-05T10:16:36;4.25;;;2.38;;
10293;SDS011;5192;50.328;7.610;2023-06-05T10:19:05;5.15;;;2.20;;
10293;SDS011;5192;50.328;7.610;2023-06-05T10:21:33;4.53;;;2.40;;
10293;SDS011;5192;50.328;7.610;2023-06-05T10:24:04;3.95;;;2.17;;
10293;SDS011;5192;50.328;7.610;2023-06-05T10:32:32;3.00;;;2.50;;
10293;SDS011;5192;50.328;7.610;2023-06-05T10:35:49;5.28;;;2.22;;
10293;SDS011;5192;50.328;7.610;2023-06-05T10:38:45;3.65;;;2.60;;
10293;SDS011;5192;50.328;7.610;2023-06-05T10:41:13;2.90;;;2.55;;
10293;SDS011;5192;50.328;7.610;2023-06-05T10:51:57;3.55;;;2.50;;
10293;SDS011;5192;50.328;7.610;2023-06-05T10:56:59;3.35;;;2.45;;
10293;SDS011;5192;50.328;7.610;2023-06-05T10:59:38;2.40;;;2.20;;
10293;SDS011;5192;50.328;7.610;2023-06-05T11:07:22;3.67;;;2.53;;
10293;SDS011;5192;50.328;7.610;2023-06-05T11:12:57;4.50;;;2.28;;
10293;SDS011;5192;50.328;7.610;2023-06-05T11:18:33;2.85;;;2.47;;
10293;SDS011;5192;50.328;7.610;2023-06-05T11:21:00;2.40;;;2.20;;
10293;SDS011;5192;50.328;7.610;2023-06-05T11:23:27;3.05;;;2.40;;
10293;SDS011;5192;50.328;7.610;2023-06-05T11:25:55;3.20;;;2.75;;
10293;SDS011;5192;50.328;7.610;2023-06-05T11:28:56;2.67;;;2.47;;
10293;SDS011;5192;50.328;7.610;2023-06-05T11:31:27;3.08;;;2.33;;
10293;SDS011;5192;50.328;7.610;2023-06-05T11:33:57;3.00;;;2.20;;
10293;SDS011;5192;50.328;7.610;2023-06-05T11:36:25;3.67;;;2.75;;
10293;SDS011;5192;50.328;7.610;2023-06-05T11:38:55;4.85;;;2.97;;
10293;SDS011;5192;50.328;7.610;2023-06-05T11:41:24;4.97;;;3.35;;
10293;SDS011;5192;50.328;7.610;2023-06-05T11:43:53;3.08;;;2.42;;
10293;SDS011;5192;50.328;7.610;2023-06-05T11:46:44;2.72;;;2.50;;
10293;SDS011;5192;50.328;7.610;2023-06-05T11:49:31;2.38;;;2.17;;
10293;SDS011;5192;50.328;7.610;2023-06-05T11:51:57;3.88;;;2.80;;
10293;SDS011;5192;50.328;7.610;2023-06-05T11:54:27;3.78;;;2.53;;
10293;SDS011;5192;50.328;7.610;2023-06-05T11:56:58;3.15;;;2.70;;
10293;SDS011;5192;50.328;7.610;2023-06-05T11:59:37;3.72;;;2.60;;
10293;SDS011;5192;50.328;7.610;2023-06-05T12:02:03;4.35;;;2.83;;
10293;SDS011;5192;50.328;7.610;2023-06-05T12:04:32;2.95;;;2.35;;
10293;SDS011;5192;50.328;7.610;2023-06-05T12:06:59;3.50;;;2.60;;
10293;SDS011;5192;50.328;7.610;2023-06-05T12:09:27;2.85;;;2.30;;
10293;SDS011;5192;50.328;7.610;2023-06-05T12:12:04;3.25;;;2.80;;
10293;SDS011;5192;50.328;7.610;2023-06-05T12:14:34;4.15;;;2.55;;
10293;SDS011;5192;50.328;7.610;2023-06-05T12:17:00;3.90;;;2.55;;
10293;SDS011;5192;50.328;7.610;2023-06-05T12:19:34;3.08;;;2.50;;
10293;SDS011;5192;50.328;7.610;2023-06-05T12:22:05;3.60;;;2.97;;
10293;SDS011;5192;50.328;7.610;2023-06-05T12:24:35;2.83;;;2.50;;
10293;SDS011;5192;50.328;7.610;2023-06-05T12:27:03;2.65;;;2.45;;
10293;SDS011;5192;50.328;7.610;2023-06-05T12:29:35;2.60;;;2.40;;
10293;SDS011;5192;50.328;7.610;2023-06-05T12:32:18;3.45;;;2.72;;
10293;SDS011;5192;50.328;7.610;2023-06-05T12:34:51;3.70;;;2.55;;
10293;SDS011;5192;50.328;7.610;2023-06-05T12:40:13;2.38;;;2.17;;
10293;SDS011;5192;50.328;7.610;2023-06-05T12:42:40;3.53;;;2.83;;
10293;SDS011;5192;50.328;7.610;2023-06-05T12:45:09;3.80;;;2.90;;
10293;SDS011;5192;50.328;7.610;2023-06-05T12:47:37;3.10;;;2.90;;
10293;SDS011;5192;50.328;7.610;2023-06-05T12:50:04;2.60;;;2.40;;
10293;SDS011;5192;50.328;7.610;2023-06-05T12:52:37;2.85;;;2.60;;
10293;SDS011;5192;50.328;7.610;2023-06-05T12:55:05;3.55;;;2.60;;
10293;SDS011;5192;50.328;7.610;2023-06-05T12:57:33;3.08;;;2.67;;
10293;SDS011;5192;50.328;7.610;2023-06-05T13:00:03;2.83;;;2.60;;
10293;SDS011;5192;50.328;7.610;2023-06-05T13:02:38;3.33;;;2.60;;
10293;SDS011;5192;50.328;7.610;2023-06-05T13:05:09;3.65;;;2.70;;
10293;SDS011;5192;50.328;7.610;2023-06-05T13:07:37;3.05;;;2.75;;
10293;SDS011;5192;50.328;7.610;2023-06-05T13:10:08;3.42;;;2.65;;
10293;SDS011;5192;50.328;7.610;2023-06-05T13:12:36;2.53;;;2.33;;
10293;SDS011;5192;50.328;7.610;2023-06-05T13:15:02;2.72;;;2.53;;
10293;SDS011;5192;50.328;7.610;2023-06-05T13:17:32;4.15;;;2.88;;
10293;SDS011;5192;50.328;7.610;2023-06-05T13:20:02;3.20;;;2.90;;
10293;SDS011;5192;50.328;7.610;2023-06-05T13:22:33;4.13;;;2.92;;
10293;SDS011;5192;50.328;7.610;2023-06-05T13:25:02;3.20;;;2.35;;
10293;SDS011;5192;50.328;7.610;2023-06-05T13:27:33;3.40;;;2.70;;
10293;SDS011;5192;50.328;7.610;2023-06-05T13:30:04;2.90;;;2.60;;
10293;SDS011;5192;50.328;7.610;2023-06-05T13:32:32;2.70;;;2.50;;
10293;SDS011;5192;50.328;7.610;2023-06-05T13:35:00;3.00;;;2.80;;
10293;SDS011;5192;50.328;7.610;2023-06-05T13:37:26;2.75;;;2.55;;
10293;SDS011;5192;50.328;7.610;2023-06-05T13:39:55;3.95;;;2.80;;
10293;SDS011;5192;50.328;7.610;2023-06-05T13:42:24;4.78;;;2.80;;
10293;SDS011;5192;50.328;7.610;2023-06-05T13:44:52;3.00;;;2.67;;
10293;SDS011;5192;50.328;7.610;2023-06-05T13:47:20;3.33;;;2.45;;
10293;SDS011;5192;50.328;7.610;2023-06-05T13:49:48;4.85;;;2.70;;
10293;SDS011;5192;50.328;7.610;2023-06-05T13:52:15;2.78;;;2.58;;
10293;SDS011;5192;50.328;7.610;2023-06-05T13:54:42;3.03;;;2.67;;
10293;SDS011;5192;50.328;7.610;2023-06-05T13:57:10;3.38;;;2.70;;
10293;SDS011;5192;50.328;7.610;2023-06-05T13:59:37;3.20;;;2.90;;
10293;SDS011;5192;50.328;7.610;2023-06-05T14:02:06;3.65;;;2.55;;
10293;SDS011;5192;50.328;7.610;2023-06-05T14:04:32;3.25;;;2.47;;
10293;SDS011;5192;50.328;7.610;2023-06-05T14:07:00;2.70;;;2.50;;
10293;SDS011;5192;50.328;7.610;2023-06-05T14:09:27;3.08;;;2.47;;
10293;SDS011;5192;50.328;7.610;2023-06-05T14:11:55;2.92;;;2.65;;
10293;SDS011;5192;50.328;7.610;2023-06-05T14:14:23;3.35;;;2.85;;
10293;SDS011;5192;50.328;7.610;2023-06-05T14:16:50;3.63;;;2.80;;
10293;SDS011;5192;50.328;7.610;2023-06-05T14:19:17;4.47;;;3.03;;
10293;SDS011;5192;50.328;7.610;2023-06-05T14:21:45;3.63;;;2.55;;
10293;SDS011;5192;50.328;7.610;2023-06-05T14:24:12;2.65;;;2.45;;
10293;SDS011;5192;50.328;7.610;2023-06-05T14:26:40;3.10;;;2.42;;
10293;SDS011;5192;50.328;7.610;2023-06-05T14:29:06;2.92;;;2.70;;
10293;SDS011;5192;50.328;7.610;2023-06-05T14:31:33;4.05;;;2.80;;
10293;SDS011;5192;50.328;7.610;2023-06-05T14:34:00;2.95;;;2.60;;
10293;SDS011;5192;50.328;7.610;2023-06-05T14:36:28;3.80;;;2.75;;
10293;SDS011;5192;50.328;7.610;2023-06-05T14:38:55;3.35;;;2.60;;
10293;SDS011;5192;50.328;7.610;2023-06-05T14:41:22;3.58;;;3.10;;
10293;SDS011;5192;50.328;7.610;2023-06-05T14:43:50;4.20;;;2.80;;
10293;SDS011;5192;50.328;7.610;2023-06-05T14:46:18;3.05;;;2.75;;
10293;SDS011;5192;50.328;7.610;2023-06-05T14:48:45;2.90;;;2.60;;
10293;SDS011;5192;50.328;7.610;2023-06-05T14:51:13;3.30;;;2.75;;
10293;SDS011;5192;50.328;7.610;2023-06-05T14:53:39;2.83;;;2.63;;
10293;SDS011;5192;50.328;7.610;2023-06-05T14:56:07;3.90;;;2.80;;
10293;SDS011;5192;50.328;7.610;2023-06-05T14:58:35;3.15;;;2.55;;
10293;SDS011;5192;50.328;7.610;2023-06-05T15:01:01;2.75;;;2.50;;
10293;SDS011;5192;50.328;7.610;2023-06-05T15:03:29;3.63;;;2.70;;
10293;SDS011;5192;50.328;7.610;2023-06-05T15:05:57;3.40;;;2.65;;
10293;SDS011;5192;50.328;7.610;2023-06-05T15:08:24;4.95;;;2.63;;
10293;SDS011;5192;50.328;7.610;2023-06-05T15:10:51;4.05;;;2.67;;
10293;SDS011;5192;50.328;7.610;2023-06-05T15:13:17;4.13;;;2.55;;
10293;SDS011;5192;50.328;7.610;2023-06-05T15:15:46;3.75;;;2.90;;
10293;SDS011;5192;50.328;7.610;2023-06-05T15:18:13;3.38;;;2.95;;
10293;SDS011;5192;50.328;7.610;2023-06-05T15:20:41;2.92;;;2.70;;
10293;SDS011;5192;50.328;7.610;2023-06-05T15:23:08;3.42;;;3.13;;
10293;SDS011;5192;50.328;7.610;2023-06-05T15:25:36;5.15;;;2.78;;
10293;SDS011;5192;50.328;7.610;2023-06-05T15:28:03;4.22;;;3.00;;
10293;SDS011;5192;50.328;7.610;2023-06-05T15:30:31;3.25;;;2.92;;
10293;SDS011;5192;50.328;7.610;2023-06-05T15:32:58;8.48;;;3.00;;
10293;SDS011;5192;50.328;7.610;2023-06-05T15:35:27;2.88;;;2.58;;
10293;SDS011;5192;50.328;7.610;2023-06-05T15:37:53;4.00;;;2.95;;
10293;SDS011;5192;50.328;7.610;2023-06-05T15:40:20;3.17;;;2.70;;
10293;SDS011;5192;50.328;7.610;2023-06-05T15:42:46;5.03;;;3.00;;
10293;SDS011;5192;50.328;7.610;2023-06-05T15:45:37;3.90;;;2.90;;
10293;SDS011;5192;50.328;7.610;2023-06-05T15:48:05;3.30;;;2.97;;
10293;SDS011;5192;50.328;7.610;2023-06-05T15:50:34;2.75;;;2.50;;
10293;SDS011;5192;50.328;7.610;2023-06-05T15:53:00;3.17;;;2.88;;
10293;SDS011;5192;50.328;7.610;2023-06-05T15:55:27;2.97;;;2.67;;